Taiwan Taoyuan International Airport
RCTP : now visible

Airfield :











YOU CAN JOIN US ON...

 
LOGIN :

Register | Disclaimer

   EN    FR    IT 

 









Legend :    VFR   Marginal VFR   IFR   Intensive IFR   Very Intensive IFR
Visi :
Ceiling :
>= 8 km
>= 3000ft
5 to 8 km
1000 to 3000 ft
1500m to 5 km
500 to 1000 ft
800 to 1500m
200 to 500 ft
< 800m
< 200 ft
Symbols :   Thunderstorms  Fog  Heavy snow  Heavy precipitations  Wind > 20 kt







- Airport Elevation : 106 ft
- IATA code : TPE


RCTP - Taiwan Taoyuan International

CURRENT METAR :
  • 210200Z 22009KT 4500 -RA FEW006 BKN015 BKN025 22/21 Q1005 NOSIG RMK A2968 RA AMT 1.0MM

EXPIRED METARs :
  • 210130Z 22009KT 4000 -RA FEW006 BKN015 BKN025 21/21 Q1005 NOSIG RMK A2968
  • 210100Z 22010KT 5000 -RA FEW006 BKN015 BKN025 21/21 Q1005 NOSIG RMK A2968 RA AMT 1.0MM
  • 210030Z 22008KT 4000 -RA SCT006 BKN012 BKN025 21/21 Q1005 NOSIG RMK A2968
  • 210000Z 22010KT 4000 -RA FEW012 BKN025 BKN040 21/20 Q1004 NOSIG RMK A2967 RA AMT 1.2MM
  • 202330Z 22010KT 4000 -RA FEW012 BKN020 BKN035 20/20 Q1004 NOSIG RMK A2967

TAF TAF RCTP
Valid from the 21 at 00:00 until the 22 at 06:00 UTC


202300Z 2100/2206 33012KT 8000 FEW016 BKN032
TEMPO 2100/2104 23008KT 2800 RA FEW007 BKN017
TEMPO 2104/2110 30013KT 4000 RA FEW012 BKN020
TEMPO 2110/2114 25010KT 2800 RA FEW007 BKN015
TEMPO 2118/2124 25007KT FEW010 BKN018
No reported NOTAMs for that airfield.



MET'MAP, your aeronautical weather chart ! - Copyright ORBIFLY December 2007 - Disclaimer

ORBIFLY MET'MAP TEAM :

Programming & Development : Alexandra Zaïnal
Concept & Development : Baudouin d'Aumeries
Co-Development & Prog : Marc-Olivier Méhu
Technical & hardware support : Manuel Goepfert

Contact : metmap@orbifly.com




SOURCES & CREDITS :

   NOAA       Earth
Advisory